createdAt,value
2018-07-01T00:02:15.252Z,16.90
2018-07-01T00:04:42.953Z,16.80
2018-07-01T00:07:10.689Z,16.80
2018-07-01T00:09:38.437Z,16.70
2018-07-01T00:12:06.178Z,16.70
2018-07-01T00:17:01.430Z,16.50
2018-07-01T00:19:29.483Z,16.50
2018-07-01T00:24:24.788Z,16.40
2018-07-01T00:26:52.448Z,16.30
2018-07-01T00:29:20.122Z,16.30
2018-07-01T00:31:47.844Z,16.20
2018-07-01T00:39:11.887Z,16.20
2018-07-01T00:41:39.636Z,16.20
2018-07-01T00:46:36.717Z,16.10
2018-07-01T00:49:05.405Z,16.10
2018-07-01T00:51:33.653Z,16.00
2018-07-01T00:54:01.588Z,16.10
2018-07-01T00:56:29.233Z,16.00
2018-07-01T00:58:56.925Z,15.90
2018-07-01T01:01:24.639Z,15.90
2018-07-01T01:03:52.289Z,15.90
2018-07-01T01:06:19.988Z,15.90
2018-07-01T01:11:15.278Z,15.80
2018-07-01T01:13:42.932Z,15.70
2018-07-01T01:16:10.669Z,15.70
2018-07-01T01:18:38.377Z,15.70
2018-07-01T01:23:33.924Z,15.60
2018-07-01T01:26:01.596Z,15.50
2018-07-01T01:28:29.249Z,15.50
2018-07-01T01:30:56.940Z,15.40
2018-07-01T01:33:24.717Z,15.40
2018-07-01T01:38:20.787Z,15.30
2018-07-01T01:41:52.757Z,15.30
2018-07-01T01:47:02.405Z,15.30
2018-07-01T01:49:39.556Z,15.30
2018-07-01T02:05:00.790Z,14.90
2018-07-01T02:07:40.128Z,14.90
2018-07-01T02:12:35.498Z,14.80
2018-07-01T02:17:37.479Z,14.70
2018-07-01T02:20:05.534Z,14.60
2018-07-01T02:22:39.163Z,14.60
2018-07-01T02:25:11.290Z,14.70
2018-07-01T02:27:39.022Z,14.70
2018-07-01T02:30:06.708Z,14.60
2018-07-01T02:32:34.388Z,14.60
2018-07-01T02:35:02.177Z,14.50
2018-07-01T02:39:57.388Z,14.50
2018-07-01T02:42:25.057Z,14.50
2018-07-01T02:47:20.352Z,14.50
2018-07-01T02:49:48.089Z,14.50
2018-07-01T02:52:15.764Z,14.50
2018-07-01T02:54:43.428Z,14.50
2018-07-01T02:57:11.138Z,14.50
2018-07-01T03:02:06.344Z,14.50
2018-07-01T03:04:34.025Z,14.50
2018-07-01T03:07:01.744Z,14.50
2018-07-01T03:11:56.960Z,14.50
2018-07-01T03:16:52.170Z,14.40
2018-07-01T03:19:19.918Z,14.40
2018-07-01T03:21:47.640Z,14.30
2018-07-01T03:26:42.947Z,14.30
2018-07-01T03:29:10.763Z,14.30
2018-07-01T03:36:33.623Z,14.20
2018-07-01T03:39:01.290Z,14.20
2018-07-01T03:41:28.975Z,14.20
2018-07-01T03:51:19.418Z,14.10
2018-07-01T03:53:47.174Z,14.10
2018-07-01T03:56:14.822Z,14.10
2018-07-01T03:58:42.525Z,14.00
2018-07-01T04:01:10.240Z,14.00
2018-07-01T04:08:33.119Z,14.00
2018-07-01T04:15:55.905Z,13.90
2018-07-01T04:18:23.580Z,14.00
2018-07-01T04:20:51.328Z,14.00
2018-07-01T04:23:18.948Z,14.00
2018-07-01T04:25:46.624Z,14.00
2018-07-01T04:30:41.910Z,14.00
2018-07-01T04:33:09.536Z,14.00
2018-07-01T04:35:37.233Z,14.00
2018-07-01T04:38:04.930Z,14.00
2018-07-01T04:40:32.575Z,14.10
2018-07-01T04:43:00.275Z,14.20
2018-07-01T04:45:27.975Z,14.20
2018-07-01T04:47:55.648Z,14.20
2018-07-01T04:50:23.284Z,14.20
2018-07-01T04:52:50.993Z,14.30
2018-07-01T05:00:13.784Z,14.20
2018-07-01T05:05:09.003Z,14.30
2018-07-01T05:10:04.293Z,14.30
2018-07-01T05:14:59.493Z,14.30
2018-07-01T05:17:27.135Z,14.30
2018-07-01T05:19:54.798Z,14.40
2018-07-01T05:22:22.463Z,14.40
2018-07-01T05:27:17.739Z,14.50
2018-07-01T05:39:35.584Z,14.70
2018-07-01T05:42:03.262Z,14.80
2018-07-01T05:44:30.940Z,14.90
2018-07-01T05:46:58.660Z,15.00
2018-07-01T05:49:26.404Z,15.00
2018-07-01T05:51:54.125Z,15.00
2018-07-01T05:54:21.783Z,15.10
2018-07-01T05:56:49.477Z,15.10
2018-07-01T05:59:17.139Z,15.20
2018-07-01T06:01:44.833Z,15.30
2018-07-01T06:04:12.591Z,15.30
2018-07-01T06:06:40.301Z,15.40
2018-07-01T06:09:09.665Z,15.50
2018-07-01T06:11:37.397Z,15.50
2018-07-01T06:14:05.200Z,15.60
2018-07-01T06:16:33.064Z,15.70
2018-07-01T06:19:00.665Z,15.80
2018-07-01T06:21:28.311Z,15.80
2018-07-01T06:23:55.956Z,15.90
2018-07-01T06:26:23.654Z,16.00
2018-07-01T06:28:51.420Z,16.10
2018-07-01T06:31:19.092Z,16.20
2018-07-01T06:33:46.821Z,16.30
2018-07-01T06:36:14.530Z,16.50
2018-07-01T06:41:09.801Z,16.70
2018-07-01T06:46:05.181Z,17.00
2018-07-01T06:48:32.950Z,17.00
2018-07-01T06:51:00.740Z,17.10
2018-07-01T06:55:56.016Z,17.30
2018-07-01T07:00:51.315Z,17.30
2018-07-01T07:05:46.536Z,17.40
2018-07-01T07:08:14.230Z,17.50
2018-07-01T07:13:09.471Z,17.70
2018-07-01T07:18:05.001Z,17.80
2018-07-01T07:20:32.726Z,17.90
2018-07-01T07:23:00.381Z,17.90
2018-07-01T07:25:28.093Z,18.10
2018-07-01T07:27:55.726Z,18.10
2018-07-01T07:30:23.458Z,18.10
2018-07-01T07:37:46.301Z,18.30
2018-07-01T07:40:13.948Z,18.30
2018-07-01T07:45:09.232Z,18.30
2018-07-01T07:47:36.929Z,18.40
2018-07-01T07:52:32.180Z,18.50
2018-07-01T07:54:59.829Z,18.60
2018-07-01T07:59:55.111Z,18.80
2018-07-01T08:02:22.844Z,18.90
2018-07-01T08:07:18.151Z,19.00
2018-07-01T08:09:45.816Z,19.00
2018-07-01T08:12:13.480Z,19.00
2018-07-01T08:14:41.169Z,19.10
2018-07-01T08:19:36.531Z,19.20
2018-07-01T08:22:04.337Z,19.10
2018-07-01T08:24:32.034Z,19.10
2018-07-01T08:26:59.734Z,19.10
2018-07-01T08:31:55.047Z,19.40
2018-07-01T08:42:49.115Z,19.90
2018-07-01T08:45:16.865Z,20.00
2018-07-01T08:50:12.144Z,20.20
2018-07-01T08:52:39.888Z,20.30
2018-07-01T08:55:07.679Z,20.50
2018-07-01T08:57:35.389Z,20.60
2018-07-01T09:00:04.040Z,20.50
2018-07-01T09:02:31.764Z,20.50
2018-07-01T09:09:54.644Z,20.60
2018-07-01T09:12:22.345Z,20.50
2018-07-01T09:14:50.079Z,20.40
2018-07-01T09:17:17.834Z,20.50
2018-07-01T09:19:45.449Z,20.60
2018-07-01T09:22:13.161Z,20.60
2018-07-01T09:32:07.981Z,21.10
2018-07-01T09:39:31.617Z,21.00
2018-07-01T09:41:59.325Z,20.90
2018-07-01T09:44:27.018Z,21.00
2018-07-01T09:46:54.731Z,21.00
2018-07-01T09:49:22.481Z,21.10
2018-07-01T09:54:17.732Z,21.20
2018-07-01T09:56:45.436Z,21.20
2018-07-01T09:59:13.120Z,21.40
2018-07-01T10:01:40.891Z,21.50
2018-07-01T10:04:08.581Z,21.50
2018-07-01T10:06:36.296Z,21.70
2018-07-01T10:09:07.182Z,21.90
2018-07-01T10:11:47.267Z,22.00
2018-07-01T10:14:23.971Z,22.20
2018-07-01T10:17:18.919Z,22.30
2018-07-01T10:20:11.301Z,22.30
2018-07-01T10:23:07.133Z,22.20
2018-07-01T10:30:51.252Z,22.70
2018-07-01T10:35:46.716Z,22.90
2018-07-01T10:38:14.510Z,22.90
2018-07-01T10:40:43.122Z,22.80
2018-07-01T10:43:11.757Z,22.80
2018-07-01T10:48:07.291Z,23.20
2018-07-01T10:50:35.595Z,23.10
2018-07-01T10:53:03.309Z,23.10
2018-07-01T10:55:31.342Z,23.20
2018-07-01T11:00:28.752Z,23.90
2018-07-01T11:03:13.859Z,23.90
2018-07-01T11:05:59.616Z,24.00
2018-07-01T11:08:27.747Z,24.10
2018-07-01T11:10:55.490Z,23.90
2018-07-01T11:13:23.176Z,23.60
2018-07-01T11:15:50.852Z,23.50
2018-07-01T11:18:18.565Z,23.50
2018-07-01T11:20:46.356Z,23.50
2018-07-01T11:25:41.618Z,23.50
2018-07-01T11:28:09.371Z,23.70
2018-07-01T11:30:37.076Z,24.00
2018-07-01T11:33:04.827Z,24.50
2018-07-01T11:35:32.645Z,24.70
2018-07-01T11:38:00.358Z,24.40
2018-07-01T11:45:23.163Z,24.00
2018-07-01T11:47:50.941Z,23.90
2018-07-01T11:50:18.711Z,23.70
2018-07-01T11:52:46.465Z,23.80
2018-07-01T11:55:14.193Z,23.80
2018-07-01T11:57:41.860Z,23.90
2018-07-01T12:02:37.192Z,24.00
2018-07-01T12:07:33.051Z,24.10
2018-07-01T12:10:01.628Z,24.10
2018-07-01T12:14:59.355Z,24.40
2018-07-01T12:17:39.386Z,24.40
2018-07-01T12:20:07.530Z,24.80
2018-07-01T12:22:35.263Z,25.30
2018-07-01T12:25:03.011Z,25.80
2018-07-01T12:27:30.691Z,26.20
2018-07-01T12:32:26.011Z,26.20
2018-07-01T12:34:53.813Z,26.20
2018-07-01T12:39:49.196Z,26.30
2018-07-01T12:42:17.220Z,26.10
2018-07-01T12:44:44.971Z,26.10
2018-07-01T12:47:12.681Z,26.30
2018-07-01T12:49:40.347Z,26.30
2018-07-01T12:52:08.083Z,26.70
2018-07-01T12:57:03.457Z,26.70
2018-07-01T13:01:58.729Z,26.70
2018-07-01T13:04:26.452Z,26.80
2018-07-01T13:06:54.157Z,27.00
2018-07-01T13:09:21.830Z,27.40
2018-07-01T13:14:17.092Z,28.00
2018-07-01T13:21:40.406Z,27.90
2018-07-01T13:24:08.123Z,27.90
2018-07-01T13:26:35.791Z,27.80
2018-07-01T13:29:03.607Z,27.90
2018-07-01T13:31:31.259Z,28.80
2018-07-01T13:36:26.493Z,29.10
2018-07-01T13:41:21.781Z,29.40
2018-07-01T13:43:49.486Z,29.80
2018-07-01T13:51:12.423Z,30.20
2018-07-01T13:53:40.137Z,30.70
2018-07-01T13:56:07.892Z,30.80
2018-07-01T13:58:35.561Z,31.30
2018-07-01T14:01:03.391Z,31.80
2018-07-01T14:03:31.083Z,32.40
2018-07-01T14:05:58.806Z,32.10
2018-07-01T14:10:54.021Z,32.10
2018-07-01T14:13:21.793Z,32.00
2018-07-01T14:15:49.524Z,31.90
2018-07-01T14:18:17.281Z,31.90
2018-07-01T14:20:45.040Z,31.80
2018-07-01T14:23:12.708Z,31.80
2018-07-01T14:28:08.123Z,31.60
2018-07-01T14:33:03.500Z,31.90
2018-07-01T14:35:31.237Z,32.00
2018-07-01T14:37:58.894Z,31.90
2018-07-01T14:40:26.633Z,31.70
2018-07-01T14:42:54.404Z,31.60
2018-07-01T14:47:50.132Z,31.40
2018-07-01T14:50:17.838Z,31.40
2018-07-01T14:52:45.554Z,31.60
2018-07-01T14:55:13.269Z,31.80
2018-07-01T14:57:41.002Z,31.80
2018-07-01T15:00:08.941Z,31.50
2018-07-01T15:05:04.573Z,31.60
2018-07-01T15:07:32.339Z,32.00
2018-07-01T15:10:00.234Z,31.80
2018-07-01T15:14:55.502Z,31.50
2018-07-01T15:17:23.251Z,31.30
2018-07-01T15:19:50.992Z,31.00
2018-07-01T15:22:18.684Z,30.70
2018-07-01T15:24:46.411Z,30.50
2018-07-01T15:29:51.421Z,30.00
2018-07-01T15:37:14.318Z,29.50
2018-07-01T15:39:42.011Z,29.30
2018-07-01T15:42:09.737Z,29.30
2018-07-01T15:47:05.067Z,29.20
2018-07-01T15:49:32.851Z,29.00
2018-07-01T15:52:00.617Z,28.50
2018-07-01T15:56:55.932Z,27.60
2018-07-01T15:59:23.629Z,27.40
2018-07-01T16:01:51.352Z,26.90
2018-07-01T16:04:19.037Z,26.70
2018-07-01T16:06:46.737Z,26.30
2018-07-01T16:09:14.437Z,26.00
2018-07-01T16:11:42.185Z,26.10
2018-07-01T16:14:09.906Z,26.10
2018-07-01T16:16:37.879Z,26.10
2018-07-01T16:19:06.011Z,26.10
2018-07-01T16:21:33.752Z,26.00
2018-07-01T16:24:01.547Z,26.00
2018-07-01T16:26:34.813Z,25.90
2018-07-01T16:31:31.678Z,25.70
2018-07-01T16:36:28.237Z,25.60
2018-07-01T16:38:55.978Z,25.60
2018-07-01T16:41:23.753Z,25.50
2018-07-01T16:43:51.467Z,25.30
2018-07-01T16:46:19.133Z,25.20
2018-07-01T16:48:48.318Z,25.10
2018-07-01T16:51:17.128Z,25.00
2018-07-01T16:56:12.939Z,24.70
2018-07-01T16:58:40.809Z,24.70
2018-07-01T17:01:08.982Z,24.70
2018-07-01T17:03:37.240Z,24.70
2018-07-01T17:06:06.323Z,24.70
2018-07-01T17:08:35.969Z,24.70
2018-07-01T17:11:04.652Z,24.60
2018-07-01T17:13:32.936Z,24.60
2018-07-01T17:16:01.608Z,24.40
2018-07-01T17:18:30.172Z,24.40
2018-07-01T17:23:27.594Z,24.30
2018-07-01T17:25:57.220Z,24.20
2018-07-01T17:31:00.285Z,24.00
2018-07-01T17:38:25.653Z,23.80
2018-07-01T17:45:51.744Z,23.00
2018-07-01T17:48:20.645Z,22.80
2018-07-01T17:50:49.008Z,22.50
2018-07-01T17:53:28.756Z,22.20
2018-07-01T17:58:25.197Z,21.80
2018-07-01T18:00:53.643Z,21.50
2018-07-01T18:03:21.800Z,21.30
2018-07-01T18:05:50.222Z,21.10
2018-07-01T18:08:18.499Z,21.10
2018-07-01T18:10:47.999Z,21.00
2018-07-01T18:15:44.810Z,20.90
2018-07-01T18:20:41.498Z,20.60
2018-07-01T18:23:44.890Z,20.50
2018-07-01T18:25:40.519Z,20.40
2018-07-01T18:28:22.701Z,20.40
2018-07-01T18:30:38.020Z,20.20
2018-07-01T18:33:07.472Z,20.20
2018-07-01T18:35:36.434Z,20.00
2018-07-01T18:38:04.618Z,20.00
2018-07-01T18:40:33.089Z,19.80
2018-07-01T18:43:00.801Z,19.70
2018-07-01T18:45:29.576Z,19.70
2018-07-01T18:50:28.247Z,19.50
2018-07-01T18:52:55.960Z,19.40
2018-07-01T18:55:24.184Z,19.40
2018-07-01T19:00:23.070Z,19.30
2018-07-01T19:02:51.426Z,19.30
2018-07-01T19:10:16.310Z,19.20
2018-07-01T19:12:45.061Z,19.00
2018-07-01T19:15:13.354Z,19.00
2018-07-01T19:17:42.415Z,19.00
2018-07-01T19:20:13.288Z,18.90
2018-07-01T19:22:41.858Z,18.90
2018-07-01T19:25:10.030Z,18.80
2018-07-01T19:27:39.400Z,18.70
2018-07-01T19:30:07.693Z,18.80
2018-07-01T19:35:03.521Z,18.70
2018-07-01T19:37:32.465Z,18.50
2018-07-01T19:40:00.796Z,18.30
2018-07-01T19:42:29.847Z,18.30
2018-07-01T19:44:57.437Z,18.20
2018-07-01T19:47:25.174Z,18.00
2018-07-01T19:49:52.909Z,18.00
2018-07-01T19:52:20.913Z,17.90
2018-07-01T19:59:46.615Z,17.70
2018-07-01T20:02:15.873Z,17.60
2018-07-01T20:12:08.739Z,17.50
2018-07-01T20:17:05.440Z,17.30
2018-07-01T20:22:01.714Z,17.30
2018-07-01T20:26:59.355Z,17.30
2018-07-01T20:29:28.236Z,17.30
2018-07-01T20:31:57.028Z,17.20
2018-07-01T20:34:25.993Z,17.20
2018-07-01T20:36:53.721Z,17.10
2018-07-01T20:39:23.825Z,17.10
2018-07-01T20:44:21.188Z,17.10
2018-07-01T20:46:49.944Z,17.10
2018-07-01T20:51:46.664Z,17.00
2018-07-01T20:54:14.345Z,16.90
2018-07-01T20:56:42.869Z,16.90
2018-07-01T21:04:07.573Z,16.80
2018-07-01T21:06:35.893Z,16.80
2018-07-01T21:09:07.814Z,16.80
2018-07-01T21:11:37.010Z,16.70
2018-07-01T21:14:05.960Z,16.70
2018-07-01T21:16:34.454Z,16.70
2018-07-01T21:19:04.200Z,16.70
2018-07-01T21:21:31.884Z,16.60
2018-07-01T21:28:54.666Z,16.40
2018-07-01T21:31:22.383Z,16.40
2018-07-01T21:33:50.050Z,16.30
2018-07-01T21:36:17.765Z,16.20
2018-07-01T21:38:45.410Z,16.20
2018-07-01T21:41:13.106Z,16.20
2018-07-01T21:46:08.457Z,16.30
2018-07-01T21:48:36.170Z,16.20
2018-07-01T21:51:03.846Z,16.20
2018-07-01T21:55:59.189Z,16.20
2018-07-01T22:03:22.103Z,16.10
2018-07-01T22:05:49.798Z,16.10
2018-07-01T22:08:17.519Z,16.10
2018-07-01T22:10:56.406Z,15.90
2018-07-01T22:17:06.666Z,15.90
2018-07-01T22:19:34.755Z,15.90
2018-07-01T22:22:02.660Z,15.80
2018-07-01T22:24:31.650Z,15.80
2018-07-01T22:29:26.859Z,15.90
2018-07-01T22:31:54.582Z,15.90
2018-07-01T22:34:22.740Z,15.80
2018-07-01T22:39:19.578Z,15.80
2018-07-01T22:44:15.457Z,15.80
2018-07-01T22:46:43.923Z,15.80
2018-07-01T22:49:11.769Z,15.70
2018-07-01T22:56:34.978Z,15.60
2018-07-01T22:59:02.733Z,15.60
2018-07-01T23:01:30.900Z,15.60
2018-07-01T23:06:26.669Z,15.70
2018-07-01T23:08:54.570Z,15.70
2018-07-01T23:11:22.253Z,15.70
2018-07-01T23:13:49.951Z,15.70
2018-07-01T23:16:17.656Z,15.80
2018-07-01T23:18:45.437Z,15.70
2018-07-01T23:23:41.164Z,15.70
2018-07-01T23:26:08.914Z,15.60
2018-07-01T23:28:36.631Z,15.50
2018-07-01T23:31:04.366Z,15.60
2018-07-01T23:33:32.376Z,15.50
2018-07-01T23:36:00.055Z,15.40
2018-07-01T23:43:23.123Z,15.30
2018-07-01T23:45:50.805Z,15.30
2018-07-01T23:50:46.087Z,15.10
2018-07-01T23:53:13.805Z,15.10
2018-07-01T23:55:41.539Z,15.10
2018-07-01T23:58:09.292Z,15.00
